ノヴォシビルスク の空港の天気 - METARとTAF

トルマチェヴォ空港(ノヴォシビルスク) ( UNNT / OVB ) - ロシア ノヴォシビルスク
飛行場実況気象(Metar)
観測時間05/27 17:30 OMST (05/27 11:30 UTC)
風向・風速北北東 5m/s
視程10km以上
天気現象
全天を覆う雲 雲底高度 300m
気温6℃
湿度87%
気圧1005hPa
METARUNNT 271130Z 02005MPS 9999 OVC010 06/04 Q1005 R07/090070 R34/090070 NOSIG RMK QFE744/0992
過去の天気等 Google飛行場航空写真 Wunderground天気予報

過去48時間のMETAR

飛行場予報(TAF)
発表時間: 5/27 17:00 OMST (5/27 11:00 UTC)
予報対象時間: 27日18時 OMST ~ 28日18時 OMST
風向・風速北北東 8m/s 瞬間風速 15m/s
視程5000m
天気現象弱いしゅう雨
全天の8割程度の積乱雲 雲底高度 300m
27日21時 OMST ~ 28日6時 OMST に一時的に
風向・風速北 3m/s 瞬間風速 8m/s
視程1500m
天気現象雷雨
全天の8割程度の雲 雲底高度 150m
全天の8割程度の積乱雲 雲底高度 300m
28日6時 OMST から
風向・風速北 5m/s 瞬間風速 10m/s
視程10km以上
全天の8割程度の積乱雲 雲底高度 370m
28日6時 OMST ~ 28日12時 OMST に一時的に
視程3100m
天気現象弱いしゅう雨 もや
全天の8割程度の雲 雲底高度 150m
全天の8割程度の積乱雲 雲底高度 370m
TAF UNNT 271100Z 2712/2812 03008G15MPS 5000 -SHRA BKN010CB
TEMPO 2715/2724 36003G08MPS 1500 TSRA BKN005 BKN010CB
FM280000 35005G10MPS 9999 BKN012CB
TEMPO 2800/2806 3100 -SHRA BR BKN005 BKN012CB